Time;durP1;ratioP1;P1;durP2;ratioP2;P2;SDS_P1;SDS_P2;PMS_P1;PMS_P2;Temp;Humidity;BMP_temperature;BMP_pressure;BME280_temperature;BME280_humidity;BME280_pressure;Samples;Min_cycle;Max_cycle;Signal;HPM_P1;HPM_P2
2023/05/08 00:01:38;;;;;;;3.07;1.63;;;;;;;14.41;82.34;99269.16;5091651;28;20205;-76
2023/05/08 00:04:05;;;;;;;2.07;1.50;;;;;;;14.40;82.95;99260.63;5091896;28;20225;-76
2023/05/08 00:06:33;;;;;;;1.47;1.20;;;;;;;14.38;83.05;99265.09;5091564;28;20556;-79
2023/05/08 00:09:00;;;;;;;1.37;1.17;;;;;;;14.20;83.46;99257.16;5090855;28;20233;-79
2023/05/08 00:11:27;;;;;;;2.00;1.23;;;;;;;14.22;82.84;99265.59;5091370;28;20221;-77
2023/05/08 00:13:54;;;;;;;2.43;1.40;;;;;;;14.23;82.75;99258.69;5091445;28;20297;-79
2023/05/08 00:16:21;;;;;;;1.93;1.20;;;;;;;14.27;82.44;99250.56;5091299;28;20215;-78
2023/05/08 00:18:47;;;;;;;2.97;2.00;;;;;;;14.33;82.57;99246.66;5091557;28;20737;-76
2023/05/08 00:21:14;;;;;;;1.40;1.23;;;;;;;14.34;82.73;99247.47;5091625;28;20201;-79
2023/05/08 00:23:42;;;;;;;1.93;1.57;;;;;;;14.37;82.78;99252.34;5091500;28;20218;-79
2023/05/08 00:26:09;;;;;;;3.20;1.37;;;;;;;14.32;82.77;99254.50;5091470;28;20694;-76
2023/05/08 00:28:36;;;;;;;1.13;1.00;;;;;;;14.32;82.84;99254.50;5091334;28;20781;-76
2023/05/08 00:31:03;;;;;;;1.63;1.40;;;;;;;14.28;83.04;99259.06;5091115;28;20622;-76
2023/05/08 00:33:30;;;;;;;1.70;1.43;;;;;;;14.19;84.40;99255.53;5091180;28;20227;-79
2023/05/08 00:36:00;;;;;;;3.70;1.60;;;;;;;14.25;84.35;99260.19;5090998;28;20202;-75
2023/05/08 00:38:27;;;;;;;1.57;1.40;;;;;;;14.25;83.49;99259.34;5091232;28;20271;-79
2023/05/08 00:40:55;;;;;;;2.03;1.20;;;;;;;14.25;84.06;99260.19;5090859;28;20198;-79
2023/05/08 00:43:24;;;;;;;1.30;1.13;;;;;;;14.19;84.71;99254.72;5091072;28;20637;-75
2023/05/08 00:45:53;;;;;;;1.73;1.50;;;;;;;14.26;83.91;99256.66;5091102;28;20201;-78
2023/05/08 00:48:21;;;;;;;1.90;1.47;;;;;;;14.37;85.17;99262.63;5090739;28;20236;-79
2023/05/08 00:50:49;;;;;;;2.87;1.70;;;;;;;14.38;84.93;99265.09;5090817;28;20194;-76
2023/05/08 00:53:17;;;;;;;4.33;1.50;;;;;;;14.30;86.15;99264.91;5090744;28;20240;-78
2023/05/08 00:55:44;;;;;;;1.47;1.37;;;;;;;14.21;86.61;99258.78;5090740;28;20211;-78
2023/05/08 00:58:13;;;;;;;2.30;1.40;;;;;;;13.72;89.07;99257.75;5090617;28;20502;-75
2023/05/08 01:00:42;;;;;;;2.70;1.83;;;;;;;13.70;89.07;99257.06;5090589;28;20197;-75
2023/05/08 01:03:09;;;;;;;2.30;1.43;;;;;;;13.62;89.95;99256.88;5090372;28;20772;-75
2023/05/08 01:05:36;;;;;;;2.47;1.70;;;;;;;13.74;89.14;99261.00;5090493;28;20206;-79
2023/05/08 01:08:03;;;;;;;2.97;1.77;;;;;;;13.81;90.01;99256.97;5089984;28;20291;-75
2023/05/08 01:10:47;;;;;;;1.53;1.17;;;;;;;13.84;88.82;99257.69;5090590;28;20200;-75
2023/05/08 01:13:25;;;;;;;1.67;1.23;;;;;;;13.71;88.57;99251.00;5090177;28;20228;-78
2023/05/08 01:15:57;;;;;;;2.23;1.60;;;;;;;13.69;89.09;99250.28;5090417;28;20219;-78
2023/05/08 01:18:33;;;;;;;2.00;1.50;;;;;;;13.66;88.50;99252.31;5090223;28;20615;-75
2023/05/08 01:21:07;;;;;;;2.37;1.27;;;;;;;13.74;88.24;99255.88;5090276;28;20556;-75
2023/05/08 01:24:03;;;;;;;1.70;1.30;;;;;;;13.76;87.72;99258.31;5090228;28;20589;-75
2023/05/08 01:26:59;;;;;;;1.70;1.27;;;;;;;13.72;87.79;99247.47;5090190;28;20215;-75
2023/05/08 01:30:08;;;;;;;5.23;1.67;;;;;;;13.78;87.69;99254.66;5090174;28;20228;-78
2023/05/08 01:32:41;;;;;;;1.53;1.27;;;;;;;13.93;88.04;99249.19;5089978;28;20211;-79
2023/05/08 01:35:17;;;;;;;1.67;1.27;;;;;;;13.89;88.94;99248.63;5089865;28;20193;-75
2023/05/08 01:37:52;;;;;;;1.47;1.37;;;;;;;13.90;88.74;99239.97;5089974;28;20242;-79
2023/05/08 01:40:32;;;;;;;2.37;1.10;;;;;;;13.84;89.45;99249.97;5090524;28;20206;-78
2023/05/08 01:43:07;;;;;;;3.17;1.27;;;;;;;13.74;89.59;99240.44;5089851;28;20604;-78
2023/05/08 01:45:39;;;;;;;1.80;1.47;;;;;;;13.72;89.88;99237.19;5090120;28;20207;-79
2023/05/08 01:48:11;;;;;;;3.03;1.67;;;;;;;13.64;90.10;99234.44;5089764;28;20229;-79
2023/05/08 01:50:44;;;;;;;2.73;1.40;;;;;;;13.64;90.62;99231.88;5090029;28;20224;-78
2023/05/08 01:53:21;;;;;;;1.50;1.23;;;;;;;13.52;91.12;99231.13;5089856;28;20610;-78
2023/05/08 01:55:50;;;;;;;1.50;1.40;;;;;;;13.51;91.77;99236.41;5090211;28;20577;-78
2023/05/08 01:58:18;;;;;;;1.30;1.17;;;;;;;13.54;91.16;99238.72;5089561;28;20714;-79
2023/05/08 02:00:46;;;;;;;1.13;1.00;;;;;;;13.56;90.45;99229.13;5089862;28;20445;-75
2023/05/08 02:03:16;;;;;;;6.30;1.90;;;;;;;13.73;89.81;99232.84;5089619;28;20222;-79
2023/05/08 02:05:45;;;;;;;1.73;1.47;;;;;;;13.71;88.92;99234.75;5090030;28;20489;-75
2023/05/08 02:08:13;;;;;;;4.23;1.97;;;;;;;13.78;88.48;99226.41;5089599;28;20236;-77
2023/05/08 02:10:42;;;;;;;1.60;1.47;;;;;;;13.86;88.24;99227.53;5089911;28;20560;-75
2023/05/08 02:13:10;;;;;;;1.70;1.50;;;;;;;13.89;88.12;99232.41;5089541;28;20612;-75
2023/05/08 02:15:39;;;;;;;2.17;1.43;;;;;;;13.86;88.14;99238.63;5089640;28;20210;-78
2023/05/08 02:18:08;;;;;;;1.40;1.10;;;;;;;13.96;88.04;99238.66;5089371;28;20240;-75
2023/05/08 02:20:38;;;;;;;1.90;1.40;;;;;;;14.02;87.38;99235.56;5089669;28;20201;-78
2023/05/08 02:23:06;;;;;;;2.53;1.40;;;;;;;13.98;87.32;99239.34;5089484;28;20725;-78
2023/05/08 02:25:35;;;;;;;1.50;1.40;;;;;;;14.02;87.50;99235.56;5089629;28;20676;-75
2023/05/08 02:28:03;;;;;;;2.03;1.37;;;;;;;14.01;87.02;99241.66;5089375;28;20222;-75
2023/05/08 02:30:31;;;;;;;3.10;1.77;;;;;;;13.95;88.03;99242.19;5089359;28;20197;-75
2023/05/08 02:32:58;;;;;;;2.73;1.33;;;;;;;13.94;86.88;99245.69;5090980;28;20229;-75
2023/05/08 02:35:28;;;;;;;1.60;1.33;;;;;;;13.85;87.94;99242.13;5093203;28;20224;-75
2023/05/08 02:37:58;;;;;;;2.27;1.50;;;;;;;13.82;88.02;99245.78;5093329;28;20240;-75
2023/05/08 02:40:28;;;;;;;2.23;1.40;;;;;;;13.78;88.93;99251.28;5093629;28;20198;-75
2023/05/08 02:42:55;;;;;;;1.90;1.30;;;;;;;13.81;88.57;99249.28;5093396;28;20229;-75
2023/05/08 02:45:26;;;;;;;1.97;1.30;;;;;;;13.80;88.32;99245.09;5093230;28;20291;-73
2023/05/08 02:48:00;;;;;;;2.23;1.37;;;;;;;13.65;89.11;99242.97;5093233;28;20306;-79
2023/05/08 02:50:33;;;;;;;1.90;1.20;;;;;;;13.69;88.87;99237.44;5093025;28;20692;-75
2023/05/08 02:53:03;;;;;;;1.40;1.23;;;;;;;13.73;88.57;99243.13;5092855;28;20706;-75
2023/05/08 02:55:40;;;;;;;1.60;1.43;;;;;;;13.69;89.09;99242.59;5093154;28;20219;-75
2023/05/08 02:58:14;;;;;;;2.23;1.53;;;;;;;13.67;89.57;99247.06;5092915;28;20742;-75
2023/05/08 03:00:47;;;;;;;1.57;1.30;;;;;;;13.66;91.20;99247.97;5092837;28;20203;-79
2023/05/08 03:03:21;;;;;;;1.20;1.10;;;;;;;13.79;91.00;99253.75;5092834;28;20225;-75
2023/05/08 03:05:54;;;;;;;1.33;1.20;;;;;;;13.73;90.04;99251.69;5092929;28;20212;-79
2023/05/08 03:08:29;;;;;;;2.60;1.70;;;;;;;13.64;92.26;99265.25;5093099;28;20243;-75
2023/05/08 03:11:01;;;;;;;1.67;1.20;;;;;;;13.73;92.09;99258.56;5092958;28;20608;-79
2023/05/08 03:13:31;;;;;;;4.30;1.60;;;;;;;13.67;93.26;99264.19;5092959;28;20589;-75
2023/05/08 03:16:01;;;;;;;2.47;1.23;;;;;;;13.65;93.07;99264.34;5092597;28;20194;-75
2023/05/08 03:18:33;;;;;;;1.80;1.50;;;;;;;13.69;93.34;99265.72;5092262;28;20245;-75
2023/05/08 03:21:01;;;;;;;2.73;1.73;;;;;;;13.67;94.58;99265.03;5092698;28;20203;-75
2023/05/08 03:23:33;;;;;;;1.40;1.30;;;;;;;13.77;94.25;99265.09;5092635;28;20249;-75
2023/05/08 03:26:01;;;;;;;1.73;1.47;;;;;;;13.79;95.09;99274.31;5092381;28;20205;-79
2023/05/08 03:28:30;;;;;;;2.23;1.53;;;;;;;13.75;94.93;99272.91;5092279;28;20230;-75
2023/05/08 03:30:58;;;;;;;1.63;1.17;;;;;;;13.76;95.38;99273.75;5092376;28;20208;-75
2023/05/08 03:33:26;;;;;;;1.80;1.50;;;;;;;13.65;97.05;99277.19;5092452;28;20218;-76
2023/05/08 03:35:54;;;;;;;2.73;1.67;;;;;;;13.69;95.16;99273.41;5092274;28;20197;-80
2023/05/08 03:38:21;;;;;;;1.93;1.60;;;;;;;13.72;97.27;99278.31;5092231;28;20712;-80
2023/05/08 03:40:49;;;;;;;1.97;1.50;;;;;;;13.62;98.00;99281.78;5092307;28;20240;-80
2023/05/08 03:43:17;;;;;;;2.20;1.40;;;;;;;13.58;98.61;99286.31;5092123;28;20757;-75
2023/05/08 03:45:45;;;;;;;2.27;1.77;;;;;;;13.60;98.53;99289.59;5092221;28;20260;-80
2023/05/08 03:48:14;;;;;;;1.70;1.37;;;;;;;13.57;99.97;99289.84;5091944;28;20256;-80
2023/05/08 03:50:41;;;;;;;1.40;1.17;;;;;;;13.56;100.00;99293.34;5091836;28;20200;-80
2023/05/08 03:53:08;;;;;;;1.87;1.43;;;;;;;13.48;100.00;99295.72;5092021;28;20228;-80
2023/05/08 03:55:36;;;;;;;1.90;1.43;;;;;;;13.35;100.00;99301.88;5091952;28;20754;-76
2023/05/08 03:58:11;;;;;;;2.50;1.73;;;;;;;13.33;100.00;99303.72;5091918;28;20651;-80
2023/05/08 04:00:51;;;;;;;2.27;1.60;;;;;;;13.30;100.00;99303.97;5091816;28;20213;-76
2023/05/08 04:03:23;;;;;;;2.47;1.73;;;;;;;13.25;100.00;99305.25;5091870;28;20222;-80
2023/05/08 04:05:57;;;;;;;5.73;2.17;;;;;;;13.22;100.00;99298.59;5091944;28;20230;-80
2023/05/08 04:08:28;;;;;;;2.90;1.77;;;;;;;13.18;100.00;99294.66;5091723;28;20229;-80
2023/05/08 04:11:04;;;;;;;4.33;1.73;;;;;;;13.14;100.00;99293.25;5092079;28;20544;-76
2023/05/08 04:13:37;;;;;;;2.93;1.90;;;;;;;13.24;100.00;99293.34;5091482;28;20779;-80
2023/05/08 04:16:09;;;;;;;2.53;1.70;;;;;;;13.34;100.00;99289.94;5091601;28;20280;-75
2023/05/08 04:18:41;;;;;;;3.30;1.40;;;;;;;13.30;100.00;99292.91;5091566;28;20655;-80
2023/05/08 04:21:11;;;;;;;5.37;1.57;;;;;;;13.39;100.00;99301.63;5091648;28;20401;-75
2023/05/08 04:23:40;;;;;;;3.00;1.63;;;;;;;13.31;100.00;99292.75;5091171;28;20227;-75
2023/05/08 04:26:09;;;;;;;3.67;1.93;;;;;;;13.36;100.00;99298.34;5091139;28;20227;-80
2023/05/08 04:28:37;;;;;;;3.90;1.73;;;;;;;13.38;100.00;99299.97;5090962;28;20232;-76
2023/05/08 04:31:05;;;;;;;3.40;1.60;;;;;;;13.36;100.00;99295.78;5091203;28;20206;-76
2023/05/08 04:33:34;;;;;;;2.97;1.83;;;;;;;13.33;100.00;99302.91;5091147;28;20231;-76
2023/05/08 04:36:02;;;;;;;2.20;1.67;;;;;;;13.35;100.00;99299.28;5090984;28;20800;-80
2023/05/08 04:38:29;;;;;;;1.93;1.60;;;;;;;13.40;100.00;99298.09;5090704;28;20231;-80
2023/05/08 04:40:56;;;;;;;5.23;2.20;;;;;;;13.47;100.00;99299.25;5090953;28;20212;-80
2023/05/08 04:43:24;;;;;;;4.27;2.47;;;;;;;13.44;100.00;99299.47;5090760;28;20219;-80
2023/05/08 04:45:52;;;;;;;3.20;1.80;;;;;;;13.44;100.00;99299.47;5090915;28;20207;-79
2023/05/08 04:48:19;;;;;;;3.13;2.00;;;;;;;13.44;100.00;99295.16;5090933;28;20226;-76
2023/05/08 04:50:45;;;;;;;2.17;1.90;;;;;;;13.40;100.00;99298.09;5090977;28;20200;-75
2023/05/08 04:53:12;;;;;;;8.23;2.07;;;;;;;13.41;100.00;99299.72;5090721;28;20231;-76
2023/05/08 04:55:39;;;;;;;5.33;1.93;;;;;;;13.54;100.00;99300.38;5090103;28;20195;-80
2023/05/08 04:58:06;;;;;;;5.93;1.87;;;;;;;13.36;100.00;99303.47;5090537;28;20419;-76
2023/05/08 05:00:34;;;;;;;3.57;2.10;;;;;;;13.40;100.00;99303.22;5090934;28;20203;-76
2023/05/08 05:03:02;;;;;;;2.80;1.73;;;;;;;13.34;100.00;99304.53;5090619;28;20594;-76
2023/05/08 05:05:29;;;;;;;2.67;1.80;;;;;;;13.46;100.00;99298.41;5090561;28;20204;-76
2023/05/08 05:07:56;;;;;;;6.20;2.27;;;;;;;13.43;100.00;99303.78;5090774;28;20220;-79
2023/05/08 05:10:23;;;;;;;2.80;2.10;;;;;;;13.51;100.00;99305.75;5091041;28;20702;-75
2023/05/08 05:12:50;;;;;;;2.20;1.80;;;;;;;13.63;100.00;99298.81;5090229;28;20232;-76
2023/05/08 05:15:17;;;;;;;2.13;1.80;;;;;;;13.64;100.00;99301.22;5090465;28;20204;-75
2023/05/08 05:17:44;;;;;;;4.17;1.73;;;;;;;13.74;100.00;99299.56;5090302;28;20216;-76
2023/05/08 05:20:13;;;;;;;2.93;1.80;;;;;;;13.88;100.00;99297.63;5090495;28;20232;-80
2023/05/08 05:22:40;;;;;;;2.60;1.93;;;;;;;13.95;100.00;99294.41;5090108;28;20235;-75
2023/05/08 05:25:08;;;;;;;2.10;1.70;;;;;;;14.11;100.00;99296.53;5090370;28;20201;-75
2023/05/08 05:27:35;;;;;;;3.53;2.23;;;;;;;14.10;100.00;99299.19;5090029;28;20199;-80
2023/05/08 05:30:03;;;;;;;2.27;1.70;;;;;;;14.10;100.00;99297.44;5090129;28;20696;-75
2023/05/08 05:32:30;;;;;;;6.57;2.10;;;;;;;14.20;100.00;99297.50;5089767;28;20685;-76
2023/05/08 05:34:57;;;;;;;3.23;1.53;;;;;;;14.24;100.00;99299.69;5090032;28;20198;-75
2023/05/08 05:37:25;;;;;;;3.53;1.83;;;;;;;14.32;100.00;99293.09;5089945;28;20224;-80
2023/05/08 05:39:52;;;;;;;2.83;1.93;;;;;;;14.36;100.00;99295.25;5089984;28;20685;-76
2023/05/08 05:42:18;;;;;;;1.80;1.53;;;;;;;14.57;100.00;99291.84;5089890;28;20196;-76
2023/05/08 05:44:45;;;;;;;1.83;1.43;;;;;;;14.65;100.00;99299.72;5090282;28;20209;-79
2023/05/08 05:47:12;;;;;;;2.70;1.47;;;;;;;14.71;100.00;99297.41;5089809;28;20204;-75
2023/05/08 05:49:41;;;;;;;1.87;1.30;;;;;;;14.81;100.00;99302.59;5089715;28;20859;-80
2023/05/08 05:52:08;;;;;;;2.67;1.83;;;;;;;15.08;100.00;99301.97;5089836;28;20788;-76
2023/05/08 05:54:37;;;;;;;2.60;1.77;;;;;;;15.21;100.00;99300.88;5090197;28;20214;-80
2023/05/08 05:57:04;;;;;;;3.03;2.17;;;;;;;15.37;98.61;99308.88;5089599;28;20202;-76
2023/05/08 05:59:31;;;;;;;2.13;1.60;;;;;;;15.67;100.00;99309.69;5089955;28;20628;-79
2023/05/08 06:01:57;;;;;;;3.00;1.67;;;;;;;15.95;98.79;99308.84;5089732;28;20675;-79
2023/05/08 06:04:25;;;;;;;4.90;1.57;;;;;;;16.68;96.91;99305.56;5089710;28;20662;-80
2023/05/08 06:06:52;;;;;;;3.20;2.20;;;;;;;17.23;89.72;99299.53;5089676;28;20228;-79
2023/05/08 06:09:19;;;;;;;4.23;2.00;;;;;;;17.56;89.21;99298.00;5094080;28;20222;-76
2023/05/08 06:11:48;;;;;;;2.37;1.73;;;;;;;17.77;85.37;99298.50;5093773;28;20207;-79
2023/05/08 06:14:14;;;;;;;2.60;1.70;;;;;;;18.02;85.70;99301.25;5093896;28;20219;-78
2023/05/08 06:16:43;;;;;;;3.03;1.83;;;;;;;18.30;85.60;99294.94;5093830;28;20211;-78
2023/05/08 06:19:10;;;;;;;2.00;1.60;;;;;;;18.41;82.20;99291.22;5093807;28;20267;-79
2023/05/08 06:21:38;;;;;;;3.77;1.60;;;;;;;18.47;83.59;99292.38;5093798;28;20207;-76
2023/05/08 06:24:06;;;;;;;2.00;1.70;;;;;;;18.31;80.74;99291.34;5093990;28;20659;-75
2023/05/08 06:26:33;;;;;;;2.10;1.67;;;;;;;18.22;82.87;99288.91;5093546;28;20202;-76
2023/05/08 06:29:01;;;;;;;2.80;1.83;;;;;;;18.01;83.22;99290.09;5093665;28;20221;-80
2023/05/08 06:31:28;;;;;;;2.13;1.80;;;;;;;17.81;83.73;99284.31;5093270;28;20277;-76
2023/05/08 06:33:55;;;;;;;2.47;1.83;;;;;;;17.99;82.47;99288.63;5093675;28;20692;-78
2023/05/08 06:36:22;;;;;;;3.50;1.87;;;;;;;17.79;83.32;99290.59;5093438;28;20200;-78
2023/05/08 06:38:49;;;;;;;3.40;1.73;;;;;;;17.86;82.82;99284.69;5093441;28;20236;-79
2023/05/08 06:41:15;;;;;;;2.47;1.70;;;;;;;18.07;82.96;99286.09;5093467;28;20211;-76
2023/05/08 06:43:42;;;;;;;6.43;1.70;;;;;;;17.88;82.51;99290.50;5093301;28;20224;-78
2023/05/08 06:46:10;;;;;;;2.83;1.87;;;;;;;17.87;82.01;99291.47;5093231;28;20201;-78
2023/05/08 06:48:37;;;;;;;1.50;1.40;;;;;;;17.97;84.38;99283.59;5093274;28;20629;-75
2023/05/08 06:51:04;;;;;;;6.27;1.70;;;;;;;17.95;81.62;99279.53;5092986;28;20217;-78
2023/05/08 06:53:31;;;;;;;5.53;1.77;;;;;;;18.26;80.62;99285.84;5093073;28;20232;-76
2023/05/08 06:55:58;;;;;;;2.33;1.60;;;;;;;18.78;81.70;99288.31;5093067;28;20287;-79
2023/05/08 06:58:25;;;;;;;1.47;1.30;;;;;;;18.91;82.83;99292.25;5092876;28;20598;-79
2023/05/08 07:00:52;;;;;;;1.87;1.53;;;;;;;19.40;80.58;99292.25;5093299;28;20197;-79
2023/05/08 07:03:20;;;;;;;5.07;1.67;;;;;;;19.59;77.13;99286.75;5092882;28;20607;-75
2023/05/08 07:05:47;;;;;;;1.80;1.43;;;;;;;19.79;73.17;99286.44;5092922;28;20233;-78
2023/05/08 07:08:14;;;;;;;1.73;1.50;;;;;;;19.68;75.47;99293.56;5092834;28;20232;-75
2023/05/08 07:10:40;;;;;;;3.00;1.70;;;;;;;19.87;77.62;99299.38;5092957;28;20207;-78
2023/05/08 07:13:07;;;;;;;2.33;1.67;;;;;;;20.01;73.45;99305.66;5092873;28;20696;-76
2023/05/08 07:15:34;;;;;;;1.87;1.37;;;;;;;19.95;72.32;99301.94;5092787;28;20203;-78
2023/05/08 07:18:01;;;;;;;2.17;1.80;;;;;;;20.12;72.59;99303.53;5092045;28;20238;-78
2023/05/08 07:20:29;;;;;;;2.83;1.50;;;;;;;20.23;73.91;99312.75;5092477;28;20223;-75
2023/05/08 07:22:56;;;;;;;1.90;1.60;;;;;;;19.97;72.87;99312.97;5092319;28;20237;-76
2023/05/08 07:25:23;;;;;;;2.27;1.70;;;;;;;20.25;72.58;99322.97;5092451;28;20200;-75
2023/05/08 07:27:50;;;;;;;2.63;2.00;;;;;;;20.23;71.30;99324.91;5092660;28;20222;-78
2023/05/08 07:30:17;;;;;;;3.40;1.67;;;;;;;20.43;71.87;99326.16;5092648;28;20231;-77
2023/05/08 07:32:43;;;;;;;2.77;1.80;;;;;;;20.48;70.08;99318.66;5092084;28;20225;-76
2023/05/08 07:35:11;;;;;;;2.40;1.63;;;;;;;20.57;72.39;99317.69;5092640;28;20220;-78
2023/05/08 07:37:39;;;;;;;2.03;1.63;;;;;;;20.91;66.90;99318.31;5092370;28;20190;-79
2023/05/08 07:40:07;;;;;;;1.53;1.30;;;;;;;21.00;64.32;99312.91;5092404;28;20235;-79
2023/05/08 07:42:39;;;;;;;2.50;1.70;;;;;;;21.02;66.50;99320.50;5091845;28;20203;-79
2023/05/08 07:45:07;;;;;;;2.53;1.60;;;;;;;20.92;64.48;99318.16;5092217;28;20205;-76
2023/05/08 07:47:33;;;;;;;1.77;1.47;;;;;;;20.76;63.55;99326.81;5091840;28;20201;-76
2023/05/08 07:50:00;;;;;;;1.80;1.60;;;;;;;20.79;64.73;99325.69;5092237;28;20216;-76
2023/05/08 07:52:27;;;;;;;1.80;1.40;;;;;;;21.32;64.06;99326.66;5091928;28;20209;-79
2023/05/08 07:54:55;;;;;;;1.50;1.33;;;;;;;21.82;64.30;99324.47;5092066;28;20208;-80
2023/05/08 07:57:22;;;;;;;1.97;1.50;;;;;;;22.29;61.24;99329.38;5091796;28;20697;-76
2023/05/08 07:59:49;;;;;;;1.90;1.60;;;;;;;22.48;58.42;99337.59;5091958;28;20230;-78
2023/05/08 08:02:16;;;;;;;1.65;1.50;;;;;;;22.70;58.73;99339.28;5092054;28;20202;-79
2023/05/08 08:04:43;;;;;;;1.92;1.50;;;;;;;22.80;57.46;99347.63;5092101;28;20598;-79
2023/05/08 08:07:09;;;;;;;1.95;1.58;;;;;;;22.52;57.38;99349.31;5091702;28;20198;-80
2023/05/08 08:09:36;;;;;;;2.30;1.60;;;;;;;22.56;59.31;99350.53;5091826;28;20225;-75
2023/05/08 08:12:04;;;;;;;1.60;1.50;;;;;;;22.34;58.84;99353.09;5091614;28;20209;-79
2023/05/08 08:14:31;;;;;;;2.60;1.80;;;;;;;22.28;60.65;99347.78;5090832;28;20726;-76
2023/05/08 08:16:58;;;;;;;1.98;1.58;;;;;;;22.30;60.82;99349.22;5090986;28;20209;-75
2023/05/08 08:19:25;;;;;;;3.08;1.92;;;;;;;21.84;58.08;99344.13;5091155;28;20238;-76
2023/05/08 08:21:52;;;;;;;3.53;1.73;;;;;;;22.17;59.34;99356.84;5091417;28;20206;-77
2023/05/08 08:24:19;;;;;;;1.70;1.40;;;;;;;22.38;56.81;99351.72;5091298;28;20225;-78
2023/05/08 08:26:46;;;;;;;6.22;2.15;;;;;;;22.82;58.60;99355.25;5091008;28;20681;-78
2023/05/08 08:29:14;;;;;;;5.57;2.00;;;;;;;23.12;57.28;99356.00;5090945;28;20718;-76
2023/05/08 08:31:41;;;;;;;6.68;1.73;;;;;;;23.07;54.44;99368.81;5090235;28;20203;-77
2023/05/08 08:34:08;;;;;;;2.40;1.70;;;;;;;23.02;56.09;99379.00;5091152;28;20248;-78
2023/05/08 08:36:34;;;;;;;2.13;1.42;;;;;;;23.14;54.93;99379.31;5090077;28;20198;-78
2023/05/08 08:39:01;;;;;;;3.53;1.65;;;;;;;22.70;54.53;99382.81;5090706;28;20218;-77
2023/05/08 08:41:28;;;;;;;1.90;1.70;;;;;;;22.64;56.78;99373.91;5090844;28;20207;-77
2023/05/08 08:43:55;;;;;;;1.67;1.58;;;;;;;22.45;56.04;99379.66;5090563;28;20386;-79
2023/05/08 08:46:26;;;;;;;1.77;1.50;;;;;;;22.32;57.90;99378.50;5090999;28;20577;-76
2023/05/08 08:48:55;;;;;;;3.85;1.45;;;;;;;22.33;55.81;99374.91;5090836;28;20225;-78
2023/05/08 08:51:27;;;;;;;2.22;1.73;;;;;;;22.33;54.74;99372.28;5090216;28;20225;-75
2023/05/08 08:54:08;;;;;;;2.45;1.50;;;;;;;22.61;56.30;99369.06;5090783;28;20222;-75
2023/05/08 08:56:38;;;;;;;1.92;1.55;;;;;;;22.51;57.60;99368.50;5090544;28;20201;-75
2023/05/08 08:59:05;;;;;;;2.60;1.47;;;;;;;22.15;57.23;99369.22;5090476;28;20318;-78
2023/05/08 09:01:38;;;;;;;2.10;1.45;;;;;;;22.15;57.45;99369.22;5089882;28;20209;-77
2023/05/08 09:04:05;;;;;;;2.20;1.67;;;;;;;21.93;55.30;99376.09;5090522;28;20217;-74
2023/05/08 09:06:36;;;;;;;1.70;1.50;;;;;;;21.96;57.60;99369.72;5088676;28;20205;-75
2023/05/08 09:09:03;;;;;;;2.93;1.50;;;;;;;22.12;57.62;99374.78;5089903;28;20290;-76
2023/05/08 09:11:30;;;;;;;4.07;1.80;;;;;;;22.08;55.57;99379.53;5089699;28;20201;-74
2023/05/08 09:13:59;;;;;;;2.20;1.70;;;;;;;21.73;57.31;99381.00;5089182;28;20580;-74
2023/05/08 09:16:27;;;;;;;7.87;4.50;;;;;;;21.51;58.24;99366.22;5090212;28;20696;-75
2023/05/08 09:18:57;;;;;;;2.67;1.90;;;;;;;21.39;58.85;99369.22;5090018;28;20222;-74
2023/05/08 09:21:24;;;;;;;5.03;2.77;;;;;;;20.95;60.36;99372.38;5090175;28;20223;-74
2023/05/08 09:23:58;;;;;;;12.30;4.33;;;;;;;21.01;62.01;99365.69;5089689;28;20223;-75
2023/05/08 09:26:31;;;;;;;30.90;10.50;;;;;;;20.82;63.78;99372.13;5089205;28;20200;-76
2023/05/08 09:29:11;;;;;;;11.75;5.68;;;;;;;20.28;63.13;99366.78;5087741;28;20535;-77
2023/05/08 09:31:40;;;;;;;3.63;2.07;;;;;;;20.37;65.46;99362.38;5089894;28;20201;-77
2023/05/08 09:34:09;;;;;;;2.60;1.70;;;;;;;20.42;67.85;99355.72;5089983;28;20223;-77
2023/05/08 09:36:36;;;;;;;3.00;1.90;;;;;;;20.52;66.18;99361.53;5090342;28;20201;-75
2023/05/08 09:39:03;;;;;;;2.40;1.77;;;;;;;20.45;65.70;99363.16;5090047;28;20601;-75
2023/05/08 09:41:30;;;;;;;1.97;1.60;;;;;;;20.21;65.76;99363.22;5089445;28;20240;-75
2023/05/08 09:44:02;;;;;;;2.40;1.73;;;;;;;20.19;67.31;99370.34;5089761;28;20220;-75
2023/05/08 09:46:29;;;;;;;2.57;1.77;;;;;;;20.19;65.39;99370.34;5089611;28;20204;-76
2023/05/08 09:48:57;;;;;;;4.37;2.13;;;;;;;20.20;66.03;99372.00;5089782;28;20224;-75
2023/05/08 09:51:28;;;;;;;3.13;1.80;;;;;;;19.76;66.84;99364.59;5089611;28;20213;-76
2023/05/08 09:53:57;;;;;;;22.80;8.70;;;;;;;19.54;68.17;99372.00;5089625;28;20233;-76
2023/05/08 09:56:34;;;;;;;5.87;2.77;;;;;;;19.37;69.03;99376.38;5089730;28;20639;-77
2023/05/08 09:59:02;;;;;;;6.67;2.33;;;;;;;19.63;66.66;99363.28;5089002;28;20730;-76
2023/05/08 10:01:31;;;;;;;30.63;12.00;;;;;;;19.32;68.78;99372.66;5089078;28;20233;-80
2023/05/08 10:03:59;;;;;;;17.13;8.00;;;;;;;19.14;68.75;99373.59;5089503;28;20223;-76
2023/05/08 10:06:28;;;;;;;19.00;8.93;;;;;;;18.87;70.88;99373.81;5089783;28;20202;-76
2023/05/08 10:09:08;;;;;;;3.47;2.10;;;;;;;18.71;69.83;99383.13;5089231;28;20271;-76
2023/05/08 10:11:36;;;;;;;4.00;2.03;;;;;;;18.68;70.52;99380.84;5089480;28;20690;-76
2023/05/08 10:14:02;;;;;;;2.50;1.90;;;;;;;18.52;69.96;99375.59;5089580;28;20229;-75
2023/05/08 10:16:31;;;;;;;2.80;1.90;;;;;;;18.52;70.87;99378.19;5089715;28;20198;-76
2023/05/08 10:19:04;;;;;;;2.13;1.57;;;;;;;18.53;71.93;99382.41;5089287;28;20232;-75
2023/05/08 10:21:36;;;;;;;2.57;2.17;;;;;;;18.58;72.07;99385.31;5088855;28;20696;-76
2023/05/08 10:24:06;;;;;;;2.23;1.83;;;;;;;18.30;73.48;99393.28;5089556;28;20228;-75
2023/05/08 10:26:38;;;;;;;4.10;1.90;;;;;;;18.29;75.39;99402.00;5089355;28;20196;-76
2023/05/08 10:29:07;;;;;;;2.20;1.77;;;;;;;18.26;75.36;99406.69;5088637;28;20225;-76
2023/05/08 10:31:36;;;;;;;2.80;1.97;;;;;;;18.26;74.12;99396.31;5089277;28;20269;-76
2023/05/08 10:34:03;;;;;;;2.80;1.73;;;;;;;18.36;73.94;99391.06;5087437;28;20231;-76
2023/05/08 10:36:33;;;;;;;1.90;1.60;;;;;;;18.29;74.50;99407.19;5088918;28;20690;-77
2023/05/08 10:39:00;;;;;;;3.03;2.17;;;;;;;18.48;72.30;99400.19;5089233;28;20584;-76
2023/05/08 10:41:27;;;;;;;4.63;2.20;;;;;;;18.39;72.52;99403.69;5089328;28;20229;-77
2023/05/08 10:43:55;;;;;;;3.13;2.20;;;;;;;18.22;73.39;99413.94;5089709;28;20294;-76
2023/05/08 10:46:30;;;;;;;2.20;1.67;;;;;;;18.36;75.54;99407.41;5089191;28;20206;-77
2023/05/08 10:49:06;;;;;;;4.17;1.80;;;;;;;18.31;75.46;99397.50;5089139;28;20215;-76
2023/05/08 10:51:41;;;;;;;2.27;1.83;;;;;;;18.29;74.74;99407.19;5088710;28;20205;-76
2023/05/08 10:54:13;;;;;;;2.03;1.77;;;;;;;18.29;74.16;99402.00;5090901;28;20228;-76
2023/05/08 10:56:40;;;;;;;3.33;2.03;;;;;;;18.10;74.27;99402.22;5093132;28;20201;-76
2023/05/08 10:59:17;;;;;;;4.63;2.23;;;;;;;17.81;76.38;99395.53;5092388;28;20734;-76
2023/05/08 11:01:47;;;;;;;2.97;2.00;;;;;;;17.56;79.74;99401.41;5091950;28;20250;-76
2023/05/08 11:04:20;;;;;;;3.27;2.20;;;;;;;17.71;79.46;99397.34;5092884;28;20224;-76
2023/05/08 11:06:51;;;;;;;4.27;2.17;;;;;;;17.69;77.42;99406.25;5091839;28;20204;-76
2023/05/08 11:09:23;;;;;;;3.43;2.07;;;;;;;17.78;79.34;99413.94;5091798;28;20569;-75
2023/05/08 11:12:07;;;;;;;2.73;2.00;;;;;;;18.16;79.24;99404.19;5092444;28;20219;-76
2023/05/08 11:14:35;;;;;;;3.33;2.53;;;;;;;18.19;77.89;99409.06;5092972;28;20758;-76
2023/05/08 11:17:09;;;;;;;3.10;1.80;;;;;;;18.01;77.66;99408.31;5092600;28;20225;-76
2023/05/08 11:19:37;;;;;;;2.87;2.17;;;;;;;17.69;78.00;99412.22;5093134;28;20221;-75
2023/05/08 11:22:21;;;;;;;3.13;2.33;;;;;;;17.76;81.39;99410.66;5091378;28;20754;-76
2023/05/08 11:24:52;;;;;;;3.10;2.20;;;;;;;17.40;80.07;99415.81;5091942;28;20243;-79
2023/05/08 11:27:30;;;;;;;4.03;2.60;;;;;;;17.22;83.21;99407.25;5091458;28;20231;-77
2023/05/08 11:30:34;;;;;;;4.00;2.10;;;;;;;17.18;82.08;99408.47;5091653;28;20678;-77
2023/05/08 11:33:15;;;;;;;2.53;1.73;;;;;;;17.17;80.44;99417.19;5059223;28;20243;-76
2023/05/08 11:35:54;;;;;;;3.80;2.20;;;;;;;16.87;80.69;99411.38;5092410;28;20221;-76
2023/05/08 11:38:34;;;;;;;4.80;2.37;;;;;;;16.61;82.32;99418.09;5092081;28;20314;-75
2023/05/08 11:41:05;;;;;;;3.57;2.10;;;;;;;16.48;82.75;99415.81;5092269;28;20290;-78
2023/05/08 11:43:59;;;;;;;2.70;1.83;;;;;;;16.48;83.52;99419.22;5092154;28;20268;-78